sensor_id;sensor_type;location;lat;lon;timestamp;pressure;altitude;pressure_sealevel;temperature;humidity
59289;BME280;45056;47.602;9.886;2024-02-15T00:00:18;93429.59;;;8.23;59.94
59289;BME280;45056;47.602;9.886;2024-02-15T00:02:46;93437.75;;;8.23;59.84
59289;BME280;45056;47.602;9.886;2024-02-15T00:05:14;93449.38;;;8.23;59.91
59289;BME280;45056;47.602;9.886;2024-02-15T00:07:42;93444.00;;;8.20;59.96
59289;BME280;45056;47.602;9.886;2024-02-15T00:10:11;93445.94;;;8.19;59.89
59289;BME280;45056;47.602;9.886;2024-02-15T00:12:41;93446.34;;;8.18;59.94
59289;BME280;45056;47.602;9.886;2024-02-15T00:15:09;93444.06;;;8.16;60.12
59289;BME280;45056;47.602;9.886;2024-02-15T00:17:37;93440.59;;;8.16;60.04
59289;BME280;45056;47.602;9.886;2024-02-15T00:20:06;93437.88;;;8.16;60.12
59289;BME280;45056;47.602;9.886;2024-02-15T00:22:36;93441.00;;;8.14;60.07
59289;BME280;45056;47.602;9.886;2024-02-15T00:25:04;93437.16;;;8.12;60.18
59289;BME280;45056;47.602;9.886;2024-02-15T00:27:37;93441.81;;;8.11;59.92
59289;BME280;45056;47.602;9.886;2024-02-15T00:30:06;93450.78;;;8.08;59.95
59289;BME280;45056;47.602;9.886;2024-02-15T00:32:35;93436.50;;;8.04;59.91
59289;BME280;45056;47.602;9.886;2024-02-15T00:35:05;93442.38;;;8.02;60.12
59289;BME280;45056;47.602;9.886;2024-02-15T00:37:36;93438.88;;;8.02;60.10
59289;BME280;45056;47.602;9.886;2024-02-15T00:40:05;93435.81;;;8.00;60.39
59289;BME280;45056;47.602;9.886;2024-02-15T00:42:34;93441.66;;;7.98;60.30
59289;BME280;45056;47.602;9.886;2024-02-15T00:45:04;93438.16;;;7.98;60.44
59289;BME280;45056;47.602;9.886;2024-02-15T00:47:34;93442.88;;;7.93;60.48
59289;BME280;45056;47.602;9.886;2024-02-15T00:50:04;93446.78;;;7.92;60.29
59289;BME280;45056;47.602;9.886;2024-02-15T00:52:33;93446.06;;;7.88;60.13
59289;BME280;45056;47.602;9.886;2024-02-15T00:55:02;93448.91;;;7.81;60.25
59289;BME280;45056;47.602;9.886;2024-02-15T00:57:30;93448.59;;;7.75;60.50
59289;BME280;45056;47.602;9.886;2024-02-15T00:59:58;93442.47;;;7.71;60.59
59289;BME280;45056;47.602;9.886;2024-02-15T01:02:27;93446.75;;;7.69;60.79
59289;BME280;45056;47.602;9.886;2024-02-15T01:04:55;93443.69;;;7.67;60.81
59289;BME280;45056;47.602;9.886;2024-02-15T01:07:24;93441.78;;;7.63;60.74
59289;BME280;45056;47.602;9.886;2024-02-15T01:09:54;93443.00;;;7.59;60.80
59289;BME280;45056;47.602;9.886;2024-02-15T01:12:22;93441.91;;;7.56;60.65
59289;BME280;45056;47.602;9.886;2024-02-15T01:14:50;93442.78;;;7.49;60.85
59289;BME280;45056;47.602;9.886;2024-02-15T01:17:18;93445.88;;;7.48;60.93
59289;BME280;45056;47.602;9.886;2024-02-15T01:19:47;93436.22;;;7.47;60.85
59289;BME280;45056;47.602;9.886;2024-02-15T01:22:15;93434.69;;;7.46;60.87
59289;BME280;45056;47.602;9.886;2024-02-15T01:24:43;93436.28;;;7.43;60.95
59289;BME280;45056;47.602;9.886;2024-02-15T01:27:12;93448.28;;;7.42;60.90
59289;BME280;45056;47.602;9.886;2024-02-15T01:29:40;93434.41;;;7.40;60.72
59289;BME280;45056;47.602;9.886;2024-02-15T01:32:09;93439.09;;;7.36;60.83
59289;BME280;45056;47.602;9.886;2024-02-15T01:34:37;93438.31;;;7.35;60.91
59289;BME280;45056;47.602;9.886;2024-02-15T01:37:06;93432.56;;;7.33;60.86
59289;BME280;45056;47.602;9.886;2024-02-15T01:39:34;93434.13;;;7.31;60.92
59289;BME280;45056;47.602;9.886;2024-02-15T01:42:02;93426.81;;;7.28;60.98
59289;BME280;45056;47.602;9.886;2024-02-15T01:44:31;93426.06;;;7.27;60.91
59289;BME280;45056;47.602;9.886;2024-02-15T01:47:00;93429.94;;;7.26;61.14
59289;BME280;45056;47.602;9.886;2024-02-15T01:49:28;93422.22;;;7.25;61.14
59289;BME280;45056;47.602;9.886;2024-02-15T01:51:58;93419.53;;;7.25;61.20
59289;BME280;45056;47.602;9.886;2024-02-15T01:54:30;93421.47;;;7.24;61.34
59289;BME280;45056;47.602;9.886;2024-02-15T01:56:59;93419.88;;;7.27;61.21
59289;BME280;45056;47.602;9.886;2024-02-15T01:59:30;93421.41;;;7.28;61.20
59289;BME280;45056;47.602;9.886;2024-02-15T02:01:59;93412.13;;;7.29;61.26
59289;BME280;45056;47.602;9.886;2024-02-15T02:04:28;93416.34;;;7.30;61.21
59289;BME280;45056;47.602;9.886;2024-02-15T02:06:58;93415.94;;;7.31;60.97
59289;BME280;45056;47.602;9.886;2024-02-15T02:09:26;93409.84;;;7.27;60.98
59289;BME280;45056;47.602;9.886;2024-02-15T02:11:55;93403.63;;;7.27;60.99
59289;BME280;45056;47.602;9.886;2024-02-15T02:14:23;93398.22;;;7.27;61.15
59289;BME280;45056;47.602;9.886;2024-02-15T02:16:51;93392.06;;;7.26;61.23
59289;BME280;45056;47.602;9.886;2024-02-15T02:19:20;93383.94;;;7.26;61.28
59289;BME280;45056;47.602;9.886;2024-02-15T02:21:48;93388.19;;;7.27;61.02
59289;BME280;45056;47.602;9.886;2024-02-15T02:24:22;93390.09;;;7.27;61.19
59289;BME280;45056;47.602;9.886;2024-02-15T02:26:52;93387.41;;;7.27;61.09
59289;BME280;45056;47.602;9.886;2024-02-15T02:29:20;93386.66;;;7.26;61.04
59289;BME280;45056;47.602;9.886;2024-02-15T02:31:49;93392.81;;;7.27;61.00
59289;BME280;45056;47.602;9.886;2024-02-15T02:34:17;93398.22;;;7.27;61.03
59289;BME280;45056;47.602;9.886;2024-02-15T02:36:46;93390.88;;;7.27;61.00
59289;BME280;45056;47.602;9.886;2024-02-15T02:39:14;93386.66;;;7.26;61.04
59289;BME280;45056;47.602;9.886;2024-02-15T02:41:43;93391.69;;;7.24;61.10
59289;BME280;45056;47.602;9.886;2024-02-15T02:44:12;93395.22;;;7.21;60.99
59289;BME280;45056;47.602;9.886;2024-02-15T02:46:41;93388.31;;;7.16;61.03
59289;BME280;45056;47.602;9.886;2024-02-15T02:49:09;93393.78;;;7.13;61.11
59289;BME280;45056;47.602;9.886;2024-02-15T02:51:38;93397.31;;;7.10;61.26
59289;BME280;45056;47.602;9.886;2024-02-15T02:54:06;93396.59;;;7.05;61.27
59289;BME280;45056;47.602;9.886;2024-02-15T02:56:34;93389.66;;;7.04;61.40
59289;BME280;45056;47.602;9.886;2024-02-15T02:59:02;93390.81;;;7.03;61.30
59289;BME280;45056;47.602;9.886;2024-02-15T03:01:32;93386.97;;;7.01;61.29
59289;BME280;45056;47.602;9.886;2024-02-15T03:04:00;93393.19;;;6.98;61.12
59289;BME280;45056;47.602;9.886;2024-02-15T03:06:29;93383.97;;;6.95;61.15
59289;BME280;45056;47.602;9.886;2024-02-15T03:08:56;93387.06;;;6.93;61.04
59289;BME280;45056;47.602;9.886;2024-02-15T03:11:24;93387.16;;;6.90;61.07
59289;BME280;45056;47.602;9.886;2024-02-15T03:13:52;93382.53;;;6.87;61.08
59289;BME280;45056;47.602;9.886;2024-02-15T03:16:22;93384.50;;;6.83;61.09
59289;BME280;45056;47.602;9.886;2024-02-15T03:18:52;93383.41;;;6.80;61.21
59289;BME280;45056;47.602;9.886;2024-02-15T03:21:21;93384.97;;;6.77;61.26
59289;BME280;45056;47.602;9.886;2024-02-15T03:23:49;93374.22;;;6.74;61.08
59289;BME280;45056;47.602;9.886;2024-02-15T03:26:26;93376.16;;;6.70;61.14
59289;BME280;45056;47.602;9.886;2024-02-15T03:29:03;93375.44;;;6.66;61.11
59289;BME280;45056;47.602;9.886;2024-02-15T03:31:32;93378.22;;;6.62;61.12
59289;BME280;45056;47.602;9.886;2024-02-15T03:34:04;93370.56;;;6.57;61.13
59289;BME280;45056;47.602;9.886;2024-02-15T03:36:32;93367.09;;;6.53;61.16
59289;BME280;45056;47.602;9.886;2024-02-15T03:39:00;93372.16;;;6.50;61.16
59289;BME280;45056;47.602;9.886;2024-02-15T03:41:28;93364.84;;;6.47;61.17
59289;BME280;45056;47.602;9.886;2024-02-15T03:43:59;93369.91;;;6.45;61.11
59289;BME280;45056;47.602;9.886;2024-02-15T03:46:27;93377.66;;;6.43;60.98
59289;BME280;45056;47.602;9.886;2024-02-15T03:48:55;93367.66;;;6.40;61.13
59289;BME280;45056;47.602;9.886;2024-02-15T03:51:24;93364.94;;;6.40;61.17
59289;BME280;45056;47.602;9.886;2024-02-15T03:53:52;93375.78;;;6.37;60.98
59289;BME280;45056;47.602;9.886;2024-02-15T03:56:20;93364.59;;;6.34;60.88
59289;BME280;45056;47.602;9.886;2024-02-15T03:58:49;93360.00;;;6.31;60.99
59289;BME280;45056;47.602;9.886;2024-02-15T04:01:17;93365.47;;;6.28;60.89
59289;BME280;45056;47.602;9.886;2024-02-15T04:03:46;93363.19;;;6.23;60.88
59289;BME280;45056;47.602;9.886;2024-02-15T04:06:14;93354.38;;;6.18;60.95
59289;BME280;45056;47.602;9.886;2024-02-15T04:08:43;93360.56;;;6.15;61.03
59289;BME280;45056;47.602;9.886;2024-02-15T04:11:11;93363.34;;;6.12;61.08
59289;BME280;45056;47.602;9.886;2024-02-15T04:13:40;93358.75;;;6.05;60.92
59289;BME280;45056;47.602;9.886;2024-02-15T04:16:09;93359.19;;;6.00;60.99
59289;BME280;45056;47.602;9.886;2024-02-15T04:18:37;93365.38;;;5.97;61.11
59289;BME280;45056;47.602;9.886;2024-02-15T04:21:05;93365.03;;;5.95;61.06
59289;BME280;45056;47.602;9.886;2024-02-15T04:23:33;93364.63;;;5.92;61.01
59289;BME280;45056;47.602;9.886;2024-02-15T04:26:03;93364.25;;;5.90;61.01
59289;BME280;45056;47.602;9.886;2024-02-15T04:28:31;93366.22;;;5.90;60.83
59289;BME280;45056;47.602;9.886;2024-02-15T04:31:00;93365.06;;;5.87;60.94
59289;BME280;45056;47.602;9.886;2024-02-15T04:33:27;93367.81;;;5.84;60.92
59289;BME280;45056;47.602;9.886;2024-02-15T04:35:55;93358.22;;;5.79;61.06
59289;BME280;45056;47.602;9.886;2024-02-15T04:38:25;93367.84;;;5.80;61.19
59289;BME280;45056;47.602;9.886;2024-02-15T04:40:53;93364.38;;;5.80;60.99
59289;BME280;45056;47.602;9.886;2024-02-15T04:43:22;93361.28;;;5.81;61.10
59289;BME280;45056;47.602;9.886;2024-02-15T04:45:50;93365.91;;;5.81;61.15
59289;BME280;45056;47.602;9.886;2024-02-15T04:48:19;93358.56;;;5.81;60.93
59289;BME280;45056;47.602;9.886;2024-02-15T04:50:47;93357.81;;;5.81;60.94
59289;BME280;45056;47.602;9.886;2024-02-15T04:53:15;93358.22;;;5.79;60.77
59289;BME280;45056;47.602;9.886;2024-02-15T04:55:43;93355.94;;;5.74;60.79
59289;BME280;45056;47.602;9.886;2024-02-15T04:58:11;93362.91;;;5.71;60.83
59289;BME280;45056;47.602;9.886;2024-02-15T05:00:40;93351.34;;;5.71;60.90
59289;BME280;45056;47.602;9.886;2024-02-15T05:03:08;93350.97;;;5.69;60.85
59289;BME280;45056;47.602;9.886;2024-02-15T05:05:36;93350.19;;;5.68;60.93
59289;BME280;45056;47.602;9.886;2024-02-15T05:08:05;93357.19;;;5.66;60.59
59289;BME280;45056;47.602;9.886;2024-02-15T05:10:35;93348.31;;;5.65;60.55
59289;BME280;45056;47.602;9.886;2024-02-15T05:13:03;93353.72;;;5.61;60.60
59289;BME280;45056;47.602;9.886;2024-02-15T05:15:31;93352.97;;;5.61;60.61
59289;BME280;45056;47.602;9.886;2024-02-15T05:18:01;93354.13;;;5.60;60.65
59289;BME280;45056;47.602;9.886;2024-02-15T05:20:29;93353.00;;;5.57;60.73
59289;BME280;45056;47.602;9.886;2024-02-15T05:22:57;93353.03;;;5.54;60.92
59289;BME280;45056;47.602;9.886;2024-02-15T05:25:25;93346.50;;;5.51;60.66
59289;BME280;45056;47.602;9.886;2024-02-15T05:27:53;93348.81;;;5.49;60.84
59289;BME280;45056;47.602;9.886;2024-02-15T05:30:21;93347.28;;;5.48;60.75
59289;BME280;45056;47.602;9.886;2024-02-15T05:32:50;93346.94;;;5.46;60.83
59289;BME280;45056;47.602;9.886;2024-02-15T05:35:20;93347.31;;;5.44;60.89
59289;BME280;45056;47.602;9.886;2024-02-15T05:37:48;93343.13;;;5.40;61.08
59289;BME280;45056;47.602;9.886;2024-02-15T05:40:19;93343.13;;;5.40;61.12
59289;BME280;45056;47.602;9.886;2024-02-15T05:42:46;93346.63;;;5.37;61.22
59289;BME280;45056;47.602;9.886;2024-02-15T05:45:29;93333.16;;;5.33;61.13
59289;BME280;45056;47.602;9.886;2024-02-15T05:47:59;93342.81;;;5.30;61.09
59289;BME280;45056;47.602;9.886;2024-02-15T05:50:29;93344.38;;;5.28;60.90
59289;BME280;45056;47.602;9.886;2024-02-15T05:52:57;93347.44;;;5.26;60.96
59289;BME280;45056;47.602;9.886;2024-02-15T05:55:25;93344.00;;;5.26;61.14
59289;BME280;45056;47.602;9.886;2024-02-15T05:57:55;93349.00;;;5.27;60.88
59289;BME280;45056;47.602;9.886;2024-02-15T06:00:23;93347.44;;;5.26;61.01
59289;BME280;45056;47.602;9.886;2024-02-15T06:02:51;93350.94;;;5.23;60.91
59289;BME280;45056;47.602;9.886;2024-02-15T06:05:21;93349.41;;;5.22;60.89
59289;BME280;45056;47.602;9.886;2024-02-15T06:07:51;93342.47;;;5.21;60.93
59289;BME280;45056;47.602;9.886;2024-02-15T06:10:19;93347.13;;;5.20;61.01
59289;BME280;45056;47.602;9.886;2024-02-15T06:12:47;93353.31;;;5.17;60.89
59289;BME280;45056;47.602;9.886;2024-02-15T06:15:15;93351.00;;;5.16;60.89
59289;BME280;45056;47.602;9.886;2024-02-15T06:17:46;93356.41;;;5.16;60.85
59289;BME280;45056;47.602;9.886;2024-02-15T06:20:16;93349.84;;;5.17;60.80
59289;BME280;45056;47.602;9.886;2024-02-15T06:22:44;93342.91;;;5.16;60.77
59289;BME280;45056;47.602;9.886;2024-02-15T06:25:14;93349.09;;;5.16;60.85
59289;BME280;45056;47.602;9.886;2024-02-15T06:27:47;93340.22;;;5.16;60.70
59289;BME280;45056;47.602;9.886;2024-02-15T06:30:15;93339.06;;;5.13;60.89
59289;BME280;45056;47.602;9.886;2024-02-15T06:33:00;93341.00;;;5.13;60.91
59289;BME280;45056;47.602;9.886;2024-02-15T06:35:46;93336.38;;;5.13;60.82
59289;BME280;45056;47.602;9.886;2024-02-15T06:38:31;93339.84;;;5.14;60.72
59289;BME280;45056;47.602;9.886;2024-02-15T06:41:18;93345.25;;;5.14;60.83
59289;BME280;45056;47.602;9.886;2024-02-15T06:43:46;93348.69;;;5.14;60.64
59289;BME280;45056;47.602;9.886;2024-02-15T06:46:14;93350.63;;;5.14;60.89
59289;BME280;45056;47.602;9.886;2024-02-15T06:48:42;93350.63;;;5.14;60.78
59289;BME280;45056;47.602;9.886;2024-02-15T06:51:12;93356.41;;;5.12;60.81
59289;BME280;45056;47.602;9.886;2024-02-15T06:53:41;93348.72;;;5.11;60.78
59289;BME280;45056;47.602;9.886;2024-02-15T06:56:09;93345.66;;;5.09;60.93
59289;BME280;45056;47.602;9.886;2024-02-15T06:58:39;93345.66;;;5.09;61.00
59289;BME280;45056;47.602;9.886;2024-02-15T07:01:08;93349.53;;;5.08;61.08
59289;BME280;45056;47.602;9.886;2024-02-15T07:03:35;93351.06;;;5.09;61.25
59289;BME280;45056;47.602;9.886;2024-02-15T07:06:04;93352.97;;;5.12;61.18
59289;BME280;45056;47.602;9.886;2024-02-15T07:08:33;93353.34;;;5.14;61.14
59289;BME280;45056;47.602;9.886;2024-02-15T07:11:02;93354.47;;;5.16;60.96
59289;BME280;45056;47.602;9.886;2024-02-15T07:13:30;93346.38;;;5.16;61.09
59289;BME280;45056;47.602;9.886;2024-02-15T07:15:59;93357.19;;;5.16;61.06
59289;BME280;45056;47.602;9.886;2024-02-15T07:18:28;93350.22;;;5.19;61.04
59289;BME280;45056;47.602;9.886;2024-02-15T07:20:56;93344.00;;;5.22;60.94
59289;BME280;45056;47.602;9.886;2024-02-15T07:23:25;93347.09;;;5.24;61.01
59289;BME280;45056;47.602;9.886;2024-02-15T07:25:53;93338.56;;;5.29;61.02
59289;BME280;45056;47.602;9.886;2024-02-15T07:28:21;93337.78;;;5.32;61.04
59289;BME280;45056;47.602;9.886;2024-02-15T07:30:52;93336.22;;;5.35;60.94
59289;BME280;45056;47.602;9.886;2024-02-15T07:33:22;93341.59;;;5.39;60.87
59289;BME280;45056;47.602;9.886;2024-02-15T07:35:50;93346.56;;;5.40;60.92
59289;BME280;45056;47.602;9.886;2024-02-15T07:38:18;93343.06;;;5.43;60.85
59289;BME280;45056;47.602;9.886;2024-02-15T07:40:49;93331.09;;;5.48;60.83
59289;BME280;45056;47.602;9.886;2024-02-15T07:43:17;93337.22;;;5.52;60.65
59289;BME280;45056;47.602;9.886;2024-02-15T07:45:45;93344.53;;;5.55;60.76
59289;BME280;45056;47.602;9.886;2024-02-15T07:48:15;93334.91;;;5.54;60.73
59289;BME280;45056;47.602;9.886;2024-02-15T07:50:45;93338.31;;;5.58;61.01
59289;BME280;45056;47.602;9.886;2024-02-15T07:53:13;93327.13;;;5.63;60.81
59289;BME280;45056;47.602;9.886;2024-02-15T07:55:41;93331.28;;;5.72;61.09
59289;BME280;45056;47.602;9.886;2024-02-15T07:58:10;93336.22;;;5.81;60.92
59289;BME280;45056;47.602;9.886;2024-02-15T08:00:39;93323.75;;;5.90;60.79
59289;BME280;45056;47.602;9.886;2024-02-15T08:03:07;93321.75;;;5.98;60.72
59289;BME280;45056;47.602;9.886;2024-02-15T08:05:35;93319.78;;;6.06;60.93
59289;BME280;45056;47.602;9.886;2024-02-15T08:08:06;93320.47;;;6.14;60.84
59289;BME280;45056;47.602;9.886;2024-02-15T08:10:33;93307.63;;;6.21;60.81
59289;BME280;45056;47.602;9.886;2024-02-15T08:13:02;93300.97;;;6.30;61.18
59289;BME280;45056;47.602;9.886;2024-02-15T08:15:30;93298.94;;;6.38;60.96
59289;BME280;45056;47.602;9.886;2024-02-15T08:17:59;93295.34;;;6.48;60.93
59289;BME280;45056;47.602;9.886;2024-02-15T08:20:31;93292.16;;;6.57;60.96
59289;BME280;45056;47.602;9.886;2024-02-15T08:23:00;93293.94;;;6.67;60.96
59289;BME280;45056;47.602;9.886;2024-02-15T08:25:30;93293.38;;;6.79;61.05
59289;BME280;45056;47.602;9.886;2024-02-15T08:27:58;93290.03;;;7.23;61.09
59289;BME280;45056;47.602;9.886;2024-02-15T08:30:31;93283.22;;;8.03;60.39
59289;BME280;45056;47.602;9.886;2024-02-15T08:32:59;93292.34;;;8.90;58.79
59289;BME280;45056;47.602;9.886;2024-02-15T08:35:28;93285.38;;;9.72;57.09
59289;BME280;45056;47.602;9.886;2024-02-15T08:37:56;93278.00;;;10.31;55.16
59289;BME280;45056;47.602;9.886;2024-02-15T08:40:24;93274.59;;;10.70;52.52
59289;BME280;45056;47.602;9.886;2024-02-15T08:42:54;93264.94;;;11.07;50.78
59289;BME280;45056;47.602;9.886;2024-02-15T08:45:22;93273.16;;;11.43;49.99
59289;BME280;45056;47.602;9.886;2024-02-15T08:47:51;93260.00;;;11.76;49.20
59289;BME280;45056;47.602;9.886;2024-02-15T08:50:20;93256.78;;;12.04;48.56
59289;BME280;45056;47.602;9.886;2024-02-15T08:52:49;93259.19;;;12.24;48.06
59289;BME280;45056;47.602;9.886;2024-02-15T08:55:17;93257.91;;;12.38;47.65
59289;BME280;45056;47.602;9.886;2024-02-15T08:57:50;93259.81;;;12.50;46.60
59289;BME280;45056;47.602;9.886;2024-02-15T09:00:20;93250.59;;;12.57;46.73
59289;BME280;45056;47.602;9.886;2024-02-15T09:02:48;93252.25;;;12.54;46.35
59289;BME280;45056;47.602;9.886;2024-02-15T09:05:17;93249.22;;;12.52;46.61
59289;BME280;45056;47.602;9.886;2024-02-15T09:07:48;93245.09;;;12.48;46.94
59289;BME280;45056;47.602;9.886;2024-02-15T09:10:17;93238.09;;;12.47;46.73
59289;BME280;45056;47.602;9.886;2024-02-15T09:12:49;93237.34;;;12.46;46.48
59289;BME280;45056;47.602;9.886;2024-02-15T09:15:17;93229.03;;;12.50;46.29
59289;BME280;45056;47.602;9.886;2024-02-15T09:17:46;93234.38;;;12.53;45.55
59289;BME280;45056;47.602;9.886;2024-02-15T09:20:16;93223.28;;;12.57;44.77
59289;BME280;45056;47.602;9.886;2024-02-15T09:22:47;93231.78;;;12.59;44.66
59289;BME280;45056;47.602;9.886;2024-02-15T09:25:16;93222.88;;;12.59;44.57
59289;BME280;45056;47.602;9.886;2024-02-15T09:27:45;93217.72;;;12.61;44.86
59289;BME280;45056;47.602;9.886;2024-02-15T09:30:14;93220.75;;;12.63;44.53
59289;BME280;45056;47.602;9.886;2024-02-15T09:32:44;93214.41;;;12.66;44.40
59289;BME280;45056;47.602;9.886;2024-02-15T09:35:13;93213.38;;;12.73;44.59
59289;BME280;45056;47.602;9.886;2024-02-15T09:37:46;93214.75;;;12.77;44.46
59289;BME280;45056;47.602;9.886;2024-02-15T09:40:16;93210.66;;;12.82;44.41
59289;BME280;45056;47.602;9.886;2024-02-15T09:42:47;93203.56;;;12.84;44.37
59289;BME280;45056;47.602;9.886;2024-02-15T09:45:15;93200.25;;;12.90;44.41
59289;BME280;45056;47.602;9.886;2024-02-15T09:47:45;93205.72;;;12.99;43.78
59289;BME280;45056;47.602;9.886;2024-02-15T09:50:17;93188.59;;;13.08;43.23
59289;BME280;45056;47.602;9.886;2024-02-15T09:52:50;93197.91;;;13.20;43.19
59289;BME280;45056;47.602;9.886;2024-02-15T09:55:20;93207.31;;;13.37;43.24
59289;BME280;45056;47.602;9.886;2024-02-15T09:57:50;93205.69;;;13.49;43.18
59289;BME280;45056;47.602;9.886;2024-02-15T10:00:19;93204.06;;;13.61;43.54
59289;BME280;45056;47.602;9.886;2024-02-15T10:02:50;93207.25;;;13.69;43.41
59289;BME280;45056;47.602;9.886;2024-02-15T10:05:20;93198.75;;;13.76;43.47
59289;BME280;45056;47.602;9.886;2024-02-15T10:07:49;93194.94;;;13.83;43.35
59289;BME280;45056;47.602;9.886;2024-02-15T10:10:18;93190.69;;;13.91;43.53
59289;BME280;45056;47.602;9.886;2024-02-15T10:12:48;93194.31;;;13.97;43.08
59289;BME280;45056;47.602;9.886;2024-02-15T10:15:29;93187.16;;;14.09;42.48
59289;BME280;45056;47.602;9.886;2024-02-15T10:17:59;93187.63;;;14.17;42.42
59289;BME280;45056;47.602;9.886;2024-02-15T10:20:29;93188.50;;;14.23;42.13
59289;BME280;45056;47.602;9.886;2024-02-15T10:23:09;93190.63;;;14.28;42.34
59289;BME280;45056;47.602;9.886;2024-02-15T10:25:39;93190.31;;;14.36;42.94
59289;BME280;45056;47.602;9.886;2024-02-15T10:28:09;93193.03;;;14.45;43.04
59289;BME280;45056;47.602;9.886;2024-02-15T10:30:39;93186.50;;;14.52;42.62
59289;BME280;45056;47.602;9.886;2024-02-15T10:33:10;93181.91;;;14.58;42.19
59289;BME280;45056;47.602;9.886;2024-02-15T10:35:46;93176.53;;;14.64;40.81
59289;BME280;45056;47.602;9.886;2024-02-15T10:38:15;93177.78;;;14.72;41.81
59289;BME280;45056;47.602;9.886;2024-02-15T10:40:43;93178.66;;;14.78;42.05
59289;BME280;45056;47.602;9.886;2024-02-15T10:43:13;93166.31;;;14.83;42.07
59289;BME280;45056;47.602;9.886;2024-02-15T10:45:43;93165.19;;;14.90;41.61
59289;BME280;45056;47.602;9.886;2024-02-15T10:48:13;93156.97;;;14.99;41.70
59289;BME280;45056;47.602;9.886;2024-02-15T10:50:41;93147.75;;;15.11;41.21
59289;BME280;45056;47.602;9.886;2024-02-15T10:53:21;93141.09;;;15.27;40.88
59289;BME280;45056;47.602;9.886;2024-02-15T10:56:03;93133.38;;;15.41;39.94
59289;BME280;45056;47.602;9.886;2024-02-15T10:58:47;93129.34;;;15.51;39.10
59289;BME280;45056;47.602;9.886;2024-02-15T11:01:22;93131.56;;;15.62;39.48
59289;BME280;45056;47.602;9.886;2024-02-15T11:03:59;93117.94;;;15.68;38.80
59289;BME280;45056;47.602;9.886;2024-02-15T11:06:38;93114.09;;;15.75;38.31
59289;BME280;45056;47.602;9.886;2024-02-15T11:09:11;93106.03;;;15.86;38.91
59289;BME280;45056;47.602;9.886;2024-02-15T11:11:42;93113.75;;;15.97;38.49
59289;BME280;45056;47.602;9.886;2024-02-15T11:14:24;93112.25;;;16.11;37.80
59289;BME280;45056;47.602;9.886;2024-02-15T11:16:53;93109.97;;;16.24;37.08
59289;BME280;45056;47.602;9.886;2024-02-15T11:19:43;93102.75;;;16.42;36.89
59289;BME280;45056;47.602;9.886;2024-02-15T11:22:15;93101.59;;;16.64;37.34
59289;BME280;45056;47.602;9.886;2024-02-15T11:24:49;93109.84;;;16.84;36.54
59289;BME280;45056;47.602;9.886;2024-02-15T11:27:26;93110.59;;;17.00;35.38
59289;BME280;45056;47.602;9.886;2024-02-15T11:29:57;93100.03;;;17.13;35.12
59289;BME280;45056;47.602;9.886;2024-02-15T11:32:41;93096.19;;;17.26;34.58
59289;BME280;45056;47.602;9.886;2024-02-15T11:35:16;93088.34;;;17.39;34.60
59289;BME280;45056;47.602;9.886;2024-02-15T11:37:51;93089.72;;;17.50;34.26
59289;BME280;45056;47.602;9.886;2024-02-15T11:40:29;93080.78;;;17.55;34.19
59289;BME280;45056;47.602;9.886;2024-02-15T11:43:50;93080.06;;;17.60;32.80
59289;BME280;45056;47.602;9.886;2024-02-15T11:46:24;93083.28;;;17.58;33.32
59289;BME280;45056;47.602;9.886;2024-02-15T11:48:57;93082.06;;;17.59;33.22
59289;BME280;45056;47.602;9.886;2024-02-15T11:51:28;93089.22;;;17.72;33.34
59289;BME280;45056;47.602;9.886;2024-02-15T11:54:02;93090.34;;;17.86;33.28
59289;BME280;45056;47.602;9.886;2024-02-15T11:56:55;93095.16;;;17.91;32.80
59289;BME280;45056;47.602;9.886;2024-02-15T11:59:40;93084.63;;;17.89;34.09
59289;BME280;45056;47.602;9.886;2024-02-15T12:02:41;93090.63;;;17.88;34.99
59289;BME280;45056;47.602;9.886;2024-02-15T12:05:23;93089.56;;;17.85;34.77
59289;BME280;45056;47.602;9.886;2024-02-15T12:08:10;93081.56;;;17.82;35.14
59289;BME280;45056;47.602;9.886;2024-02-15T12:10:58;93080.53;;;17.79;34.77
59289;BME280;45056;47.602;9.886;2024-02-15T12:13:51;93077.75;;;17.79;35.69
59289;BME280;45056;47.602;9.886;2024-02-15T12:16:36;93076.06;;;17.82;35.76
59289;BME280;45056;47.602;9.886;2024-02-15T12:19:22;93071.78;;;17.81;35.30
59289;BME280;45056;47.602;9.886;2024-02-15T12:21:52;93059.69;;;17.72;34.89
59289;BME280;45056;47.602;9.886;2024-02-15T12:24:23;93059.06;;;17.63;35.15
59289;BME280;45056;47.602;9.886;2024-02-15T12:26:59;93061.28;;;17.58;35.45
59289;BME280;45056;47.602;9.886;2024-02-15T12:29:31;93056.56;;;17.59;35.86
59289;BME280;45056;47.602;9.886;2024-02-15T12:32:01;93055.78;;;17.58;35.92
59289;BME280;45056;47.602;9.886;2024-02-15T12:34:30;93052.03;;;17.56;35.83
59289;BME280;45056;47.602;9.886;2024-02-15T12:37:07;93049.28;;;17.56;36.06
59289;BME280;45056;47.602;9.886;2024-02-15T12:39:36;93047.34;;;17.62;35.46
59289;BME280;45056;47.602;9.886;2024-02-15T12:42:06;93049.38;;;17.67;35.53
59289;BME280;45056;47.602;9.886;2024-02-15T12:44:43;93045.44;;;17.74;35.28
59289;BME280;45056;47.602;9.886;2024-02-15T12:47:20;93045.50;;;17.80;35.33
59289;BME280;45056;47.602;9.886;2024-02-15T12:49:49;93054.25;;;17.78;34.94
59289;BME280;45056;47.602;9.886;2024-02-15T12:52:36;93049.22;;;17.77;34.94
59289;BME280;45056;47.602;9.886;2024-02-15T12:55:10;93043.72;;;17.77;35.07
59289;BME280;45056;47.602;9.886;2024-02-15T12:57:45;93041.94;;;17.73;34.89
59289;BME280;45056;47.602;9.886;2024-02-15T13:00:19;93032.88;;;17.67;35.08
59289;BME280;45056;47.602;9.886;2024-02-15T13:02:50;93029.84;;;17.65;34.71
59289;BME280;45056;47.602;9.886;2024-02-15T13:05:20;93027.81;;;17.60;34.88
59289;BME280;45056;47.602;9.886;2024-02-15T13:07:49;93029.75;;;17.54;33.78
59289;BME280;45056;47.602;9.886;2024-02-15T13:10:18;93022.13;;;17.43;33.78
59289;BME280;45056;47.602;9.886;2024-02-15T13:12:46;93021.25;;;17.31;33.43
59289;BME280;45056;47.602;9.886;2024-02-15T13:15:16;93027.38;;;17.20;33.40
59289;BME280;45056;47.602;9.886;2024-02-15T13:17:49;93024.53;;;17.09;33.82
59289;BME280;45056;47.602;9.886;2024-02-15T13:20:18;93017.16;;;17.00;33.79
59289;BME280;45056;47.602;9.886;2024-02-15T13:22:56;93015.06;;;16.95;34.09
59289;BME280;45056;47.602;9.886;2024-02-15T13:25:26;93006.84;;;16.95;34.09